Time;durP1;ratioP1;P1;durP2;ratioP2;P2;SDS_P1;SDS_P2;PMS_P1;PMS_P2;Temp;Humidity;BMP_temperature;BMP_pressure;BME280_temperature;BME280_humidity;BME280_pressure;Samples;Min_cycle;Max_cycle;Signal;HPM_P1;HPM_P2
2021/09/16 08:01:27;;;;;;;10.18;4.80;;;22.30;99.90;;;;;;6264064;22;20215;-76
2021/09/16 08:03:54;;;;;;;15.27;5.47;;;22.00;99.90;;;;;;6275587;22;20174;-76
2021/09/16 08:06:21;;;;;;;12.52;5.28;;;21.90;99.90;;;;;;6269944;22;20218;-75
2021/09/16 08:08:48;;;;;;;11.68;4.35;;;22.10;99.90;;;;;;6273805;22;20281;-75
2021/09/16 08:11:15;;;;;;;8.48;4.15;;;22.40;99.90;;;;;;6274724;22;20174;-76
2021/09/16 08:13:42;;;;;;;8.73;4.53;;;22.60;99.90;;;;;;6282307;22;20186;-75
2021/09/16 08:16:10;;;;;;;7.75;4.43;;;22.90;99.90;;;;;;6282864;22;20175;-78
2021/09/16 08:18:38;;;;;;;8.60;4.38;;;23.30;99.90;;;;;;6281602;22;20226;-74
2021/09/16 08:21:05;;;;;;;8.98;4.22;;;23.80;99.90;;;;;;6273623;22;20182;-74
2021/09/16 08:23:32;;;;;;;7.97;3.95;;;24.00;99.90;;;;;;6274044;22;20257;-78
2021/09/16 08:26:00;;;;;;;7.20;3.72;;;24.20;99.90;;;;;;6273288;22;20206;-74
2021/09/16 08:28:27;;;;;;;8.05;4.20;;;24.40;99.90;;;;;;6273283;22;20270;-74
2021/09/16 08:30:54;;;;;;;8.35;4.10;;;24.60;99.90;;;;;;6274029;22;20691;-74
2021/09/16 08:33:21;;;;;;;6.10;3.58;;;24.80;99.90;;;;;;6276156;22;20198;-74
2021/09/16 08:35:50;;;;;;;6.10;3.88;;;24.60;99.90;;;;;;6275377;22;20243;-77
2021/09/16 08:38:17;;;;;;;8.65;3.75;;;24.40;99.90;;;;;;6275682;22;20201;-78
2021/09/16 08:40:44;;;;;;;6.03;3.83;;;24.10;99.90;;;;;;6278200;22;20261;-75
2021/09/16 08:43:13;;;;;;;6.78;3.58;;;24.00;99.90;;;;;;6276418;22;20181;-76
2021/09/16 08:45:40;;;;;;;8.77;3.45;;;23.80;99.90;;;;;;6276206;22;20256;-75
2021/09/16 08:48:08;;;;;;;6.28;3.88;;;23.80;99.90;;;;;;6276410;22;20199;-77
2021/09/16 08:50:35;;;;;;;7.80;3.63;;;23.90;99.90;;;;;;6276955;22;20257;-77
2021/09/16 08:53:03;;;;;;;11.55;4.32;;;23.80;99.90;;;;;;6276597;22;20175;-75
2021/09/16 08:55:30;;;;;;;7.35;4.00;;;23.70;99.90;;;;;;6276195;22;20257;-77
2021/09/16 08:57:58;;;;;;;8.02;3.50;;;23.70;99.90;;;;;;6275205;22;20224;-74
2021/09/16 09:00:27;;;;;;;6.32;3.30;;;23.70;99.90;;;;;;6276414;22;20179;-77
2021/09/16 09:02:55;;;;;;;6.25;3.90;;;23.80;99.90;;;;;;6276000;22;20190;-73
2021/09/16 09:05:22;;;;;;;6.60;3.65;;;23.70;99.90;;;;;;6277649;22;20203;-73
2021/09/16 09:07:51;;;;;;;10.73;3.78;;;23.60;99.90;;;;;;6276061;22;20269;-75
2021/09/16 09:10:41;;;;;;;6.28;3.33;;;23.60;99.90;;;;;;6277106;22;20221;-75
2021/09/16 09:13:15;;;;;;;4.47;2.70;;;23.80;99.90;;;;;;6277854;22;20175;-75
2021/09/16 09:15:43;;;;;;;5.53;3.20;;;24.10;99.90;;;;;;6277311;22;20175;-74
2021/09/16 09:18:13;;;;;;;8.93;3.97;;;24.10;99.90;;;;;;6276959;22;20725;-75
2021/09/16 09:21:02;;;;;;;5.85;2.92;;;23.80;99.90;;;;;;6277480;22;20197;-76
2021/09/16 09:23:31;;;;;;;6.38;3.13;;;23.50;99.90;;;;;;6268444;22;20641;-78
2021/09/16 09:26:01;;;;;;;5.03;3.28;;;23.30;99.90;;;;;;6277266;22;20669;-76
2021/09/16 09:28:34;;;;;;;8.07;3.33;;;23.20;99.90;;;;;;6276830;22;20202;-71
2021/09/16 09:31:15;;;;;;;4.38;2.72;;;23.10;99.90;;;;;;6271398;22;20178;-74
2021/09/16 09:33:42;;;;;;;5.82;2.72;;;22.90;99.90;;;;;;6275325;22;20179;-75
2021/09/16 09:36:12;;;;;;;4.88;2.65;;;22.70;99.90;;;;;;6275338;22;20179;-75
2021/09/16 09:38:50;;;;;;;3.40;2.28;;;22.60;99.90;;;;;;6275186;22;20233;-74
2021/09/16 09:41:31;;;;;;;3.53;2.00;;;22.60;99.90;;;;;;6274786;22;20497;-73
2021/09/16 09:44:06;;;;;;;3.13;1.90;;;22.50;99.90;;;;;;6274377;22;20174;-77
2021/09/16 09:46:42;;;;;;;3.33;2.17;;;22.50;99.90;;;;;;6274587;22;20564;-75
2021/09/16 09:49:11;;;;;;;4.35;2.35;;;22.40;99.90;;;;;;6273199;22;20195;-78
2021/09/16 09:51:40;;;;;;;4.13;2.03;;;22.30;99.90;;;;;;6272456;22;20745;-79
2021/09/16 09:54:16;;;;;;;3.97;2.15;;;22.20;99.90;;;;;;6275797;22;20229;-77
2021/09/16 09:56:58;;;;;;;4.85;1.73;;;22.10;99.90;;;;;;6275900;22;20277;-73
2021/09/16 09:59:25;;;;;;;3.20;1.30;;;22.10;99.90;;;;;;6274748;22;20738;-73
2021/09/16 10:02:01;;;;;;;2.78;1.20;;;22.10;99.90;;;;;;6275872;22;20240;-73
2021/09/16 10:04:30;;;;;;;4.05;1.52;;;22.10;99.90;;;;;;6276387;22;20179;-73
2021/09/16 10:06:57;;;;;;;1.80;1.10;;;22.20;99.90;;;;;;6275458;22;20289;-74
2021/09/16 10:09:24;;;;;;;1.58;1.20;;;22.20;99.90;;;;;;6275708;22;20703;-73
2021/09/16 10:11:55;;;;;;;3.30;1.40;;;22.40;99.90;;;;;;6276362;22;20206;-78
2021/09/16 10:14:22;;;;;;;1.80;1.00;;;22.50;99.90;;;;;;6275534;22;20237;-75
2021/09/16 10:16:49;;;;;;;4.53;1.20;;;22.50;99.90;;;;;;6275358;22;20262;-76
2021/09/16 10:19:16;;;;;;;1.40;0.90;;;22.40;99.90;;;;;;6275945;22;20195;-74
2021/09/16 10:21:43;;;;;;;2.13;1.40;;;22.40;99.90;;;;;;6275566;22;20174;-76
2021/09/16 10:24:16;;;;;;;2.65;1.15;;;22.40;99.90;;;;;;6275668;22;20605;-80
2021/09/16 10:26:45;;;;;;;2.88;1.50;;;22.30;99.90;;;;;;6275874;22;20245;-76
2021/09/16 10:29:34;;;;;;;3.40;1.40;;;22.10;99.90;;;;;;6274779;22;20656;-76
2021/09/16 10:32:36;;;;;;;4.03;1.40;;;22.10;99.90;;;;;;6276175;22;20266;-75
2021/09/16 10:35:20;;;;;;;7.32;1.60;;;22.10;99.90;;;;;;6275644;22;20209;-78
2021/09/16 10:37:47;;;;;;;2.10;1.20;;;22.10;99.90;;;;;;6275123;22;20179;-76
2021/09/16 10:40:26;;;;;;;1.83;1.00;;;22.10;99.90;;;;;;6275588;22;20181;-76
2021/09/16 10:42:55;;;;;;;1.88;0.85;;;22.20;99.90;;;;;;6275143;22;20182;-77
2021/09/16 10:45:33;;;;;;;1.17;0.90;;;22.30;99.90;;;;;;6274392;22;20387;-75
2021/09/16 10:48:24;;;;;;;1.63;1.10;;;22.20;99.90;;;;;;6275757;22;20201;-75
2021/09/16 10:50:55;;;;;;;2.58;1.10;;;22.30;99.90;;;;;;6274795;22;20479;-79
2021/09/16 10:53:38;;;;;;;3.05;0.80;;;22.40;99.90;;;;;;6275869;22;20175;-75
2021/09/16 10:56:07;;;;;;;1.95;1.20;;;22.30;99.90;;;;;;6276487;22;20186;-75
2021/09/16 10:58:34;;;;;;;2.80;1.00;;;22.20;99.90;;;;;;6277394;22;20194;-74
2021/09/16 11:01:02;;;;;;;2.15;1.17;;;22.20;99.90;;;;;;6277417;22;20181;-73
2021/09/16 11:03:28;;;;;;;1.55;0.93;;;22.30;99.90;;;;;;6276842;22;20179;-75
2021/09/16 11:06:00;;;;;;;1.48;0.90;;;22.20;99.90;;;;;;6276798;22;20205;-75
2021/09/16 11:09:02;;;;;;;2.00;1.00;;;22.10;99.90;;;;;;6276679;22;20253;-75
2021/09/16 11:11:52;;;;;;;3.80;1.42;;;22.20;99.90;;;;;;6277058;22;20178;-74
2021/09/16 11:14:34;;;;;;;2.47;1.10;;;22.30;99.90;;;;;;6277426;22;20175;-74
2021/09/16 11:17:04;;;;;;;1.48;1.08;;;22.30;99.90;;;;;;6276741;22;20193;-75
2021/09/16 11:19:31;;;;;;;5.22;1.90;;;22.20;99.90;;;;;;6276221;22;20704;-74
2021/09/16 11:22:00;;;;;;;2.13;1.08;;;22.20;99.90;;;;;;6276633;22;20179;-75
2021/09/16 11:24:32;;;;;;;1.90;1.13;;;22.40;99.90;;;;;;6277224;22;20180;-74
2021/09/16 11:37:36;;;;;;;4.80;1.42;;;22.50;99.90;;;;;;5090437;27;20606;-74
2021/09/16 11:40:06;;;;;;;3.63;1.45;;;23.10;99.90;;;;;;5070082;28;20649;-74
2021/09/16 11:42:35;;;;;;;2.92;1.50;;;23.20;99.90;;;;;;5070011;28;20203;-75
2021/09/16 11:45:11;;;;;;;1.90;1.02;;;23.20;99.90;;;;;;5070294;28;20227;-72
2021/09/16 11:47:42;;;;;;;2.78;1.65;;;23.00;99.90;;;;;;5069952;28;20210;-73
2021/09/16 11:50:13;;;;;;;4.22;1.50;;;23.00;99.90;;;;;;5070426;28;20207;-73
2021/09/16 11:52:43;;;;;;;2.65;1.70;;;23.00;99.90;;;;;;5070579;28;20556;-73
2021/09/16 11:55:13;;;;;;;4.05;1.92;;;23.10;99.90;;;;;;5070610;28;20664;-73
2021/09/16 11:58:08;;;;;;;4.82;1.88;;;23.00;99.90;;;;;;5070604;28;20723;-74
2021/09/16 12:00:38;;;;;;;2.72;1.55;;;22.90;99.90;;;;;;5070083;28;20265;-71
2021/09/16 12:03:07;;;;;;;3.17;1.60;;;22.90;99.90;;;;;;5070635;28;20570;-72
2021/09/16 12:05:40;;;;;;;2.10;1.25;;;22.90;99.90;;;;;;5070630;28;20227;-73
2021/09/16 12:08:11;;;;;;;2.17;1.50;;;22.90;99.90;;;;;;5070585;28;20219;-72
2021/09/16 12:10:50;;;;;;;1.60;1.42;;;22.90;99.90;;;;;;5070163;28;20214;-74
2021/09/16 12:13:19;;;;;;;2.42;1.70;;;22.70;99.90;;;;;;5070271;28;20199;-73
2021/09/16 12:15:49;;;;;;;3.63;1.80;;;22.70;99.90;;;;;;5069301;28;20689;-73
2021/09/16 12:18:16;;;;;;;3.08;1.60;;;22.90;99.90;;;;;;5068945;28;20224;-74
2021/09/16 12:20:46;;;;;;;1.85;1.45;;;23.00;99.90;;;;;;5069153;28;20243;-73
2021/09/16 12:23:16;;;;;;;2.22;1.35;;;22.90;99.90;;;;;;5069438;28;20214;-74
2021/09/16 12:25:55;;;;;;;1.90;1.30;;;22.80;99.90;;;;;;5069396;28;20238;-74
2021/09/16 12:28:22;;;;;;;3.30;1.50;;;22.60;99.90;;;;;;5069779;28;20220;-75
2021/09/16 12:30:50;;;;;;;2.50;1.38;;;22.60;99.90;;;;;;5069482;28;20276;-73
2021/09/16 12:33:32;;;;;;;3.20;1.73;;;22.70;99.90;;;;;;5069082;28;20207;-74
2021/09/16 12:36:13;;;;;;;2.70;1.52;;;22.70;99.90;;;;;;5069007;28;20207;-75
2021/09/16 12:38:44;;;;;;;3.67;1.50;;;22.80;99.90;;;;;;5054910;28;20227;-75
2021/09/16 12:41:22;;;;;;;2.70;1.20;;;22.90;99.90;;;;;;5055932;28;20208;-74
2021/09/16 12:43:58;;;;;;;4.28;1.60;;;23.10;99.90;;;;;;5056105;28;20200;-74
2021/09/16 12:46:26;;;;;;;1.88;1.33;;;23.30;99.90;;;;;;5055952;28;20322;-75
2021/09/16 12:48:53;;;;;;;2.42;1.95;;;23.20;99.90;;;;;;5055823;28;20223;-74
2021/09/16 12:51:22;;;;;;;3.05;1.90;;;23.00;99.90;;;;;;5056341;28;20200;-74
2021/09/16 12:53:52;;;;;;;2.38;1.83;;;22.90;99.90;;;;;;5055547;28;20740;-74
2021/09/16 12:56:19;;;;;;;2.78;1.80;;;22.90;99.90;;;;;;5055475;28;20733;-72
2021/09/16 12:58:46;;;;;;;2.17;1.70;;;23.10;99.90;;;;;;5055174;28;20234;-74
2021/09/16 13:01:13;;;;;;;2.92;1.50;;;23.40;99.90;;;;;;5055394;28;20296;-73
2021/09/16 13:03:40;;;;;;;1.50;1.10;;;23.50;99.90;;;;;;5055456;28;20204;-73
2021/09/16 13:06:11;;;;;;;3.28;1.50;;;23.70;99.90;;;;;;5055224;28;20224;-73
2021/09/16 13:08:41;;;;;;;2.80;1.50;;;23.80;99.90;;;;;;5055009;28;20230;-74
2021/09/16 13:11:23;;;;;;;3.55;1.60;;;23.80;99.90;;;;;;5055029;28;20211;-74
2021/09/16 13:14:08;;;;;;;5.28;1.73;;;23.90;99.90;;;;;;5054921;28;20672;-73
2021/09/16 13:16:36;;;;;;;2.95;1.75;;;24.00;99.90;;;;;;5055065;28;20211;-74
2021/09/16 13:19:04;;;;;;;2.67;1.90;;;24.10;99.90;;;;;;5055025;28;20234;-74
2021/09/16 13:21:31;;;;;;;2.92;1.60;;;24.00;99.90;;;;;;5055001;28;20203;-74
2021/09/16 13:23:58;;;;;;;3.17;1.88;;;24.00;99.90;;;;;;5054706;28;20204;-74
2021/09/16 13:26:28;;;;;;;2.55;1.90;;;23.90;99.90;;;;;;5054858;28;20237;-72
2021/09/16 13:28:55;;;;;;;2.28;1.65;;;23.70;99.90;;;;;;5054746;28;20238;-72
2021/09/16 13:31:23;;;;;;;2.15;1.50;;;23.70;99.90;;;;;;5054837;28;20204;-73
2021/09/16 13:33:50;;;;;;;4.47;1.40;;;23.40;99.90;;;;;;5054587;28;20204;-74
2021/09/16 13:36:17;;;;;;;3.28;1.42;;;23.40;99.90;;;;;;5054469;28;20238;-74
2021/09/16 13:38:44;;;;;;;2.95;1.73;;;23.50;99.90;;;;;;5054589;28;20650;-74
2021/09/16 13:41:11;;;;;;;1.92;1.27;;;23.60;99.90;;;;;;5054715;28;20200;-74
2021/09/16 13:43:39;;;;;;;2.42;1.60;;;23.50;99.90;;;;;;5054644;28;20207;-74
2021/09/16 13:46:06;;;;;;;4.32;2.00;;;23.50;99.90;;;;;;5054396;28;20236;-73
2021/09/16 13:48:33;;;;;;;4.25;2.00;;;23.30;99.90;;;;;;5053417;28;20230;-74
2021/09/16 13:51:00;;;;;;;3.25;1.92;;;23.30;99.90;;;;;;5054297;28;20219;-75
2021/09/16 13:53:27;;;;;;;4.53;2.38;;;23.20;99.90;;;;;;5054517;28;20724;-73
2021/09/16 13:55:54;;;;;;;5.75;2.47;;;23.00;99.90;;;;;;5054483;28;20207;-73
2021/09/16 13:58:20;;;;;;;3.53;2.22;;;23.00;99.90;;;;;;5054867;28;20231;-73
2021/09/16 14:00:50;;;;;;;3.33;2.17;;;22.90;99.90;;;;;;5054214;28;20208;-74
2021/09/16 14:03:17;;;;;;;5.00;2.20;;;22.90;99.90;;;;;;5054000;28;20204;-74
2021/09/16 14:05:44;;;;;;;4.00;2.25;;;22.70;99.90;;;;;;5054106;28;20254;-74
2021/09/16 14:08:11;;;;;;;3.33;1.92;;;22.60;99.90;;;;;;5054119;28;20231;-74
2021/09/16 14:10:38;;;;;;;3.47;2.05;;;22.60;99.90;;;;;;5054358;28;20207;-75
2021/09/16 14:13:04;;;;;;;4.95;2.40;;;22.50;99.90;;;;;;5054211;28;20588;-74
2021/09/16 14:15:31;;;;;;;3.08;2.05;;;22.60;99.90;;;;;;5053883;28;20200;-74
2021/09/16 14:18:00;;;;;;;4.90;2.40;;;22.60;99.90;;;;;;5053554;28;20223;-74
2021/09/16 14:20:26;;;;;;;3.72;2.60;;;22.80;99.90;;;;;;5053943;28;20216;-74
2021/09/16 14:22:53;;;;;;;4.38;2.85;;;22.90;99.90;;;;;;5053996;28;20208;-75
2021/09/16 14:25:20;;;;;;;4.65;2.67;;;23.00;99.90;;;;;;5053805;28;20200;-74
2021/09/16 14:27:47;;;;;;;6.05;2.50;;;23.20;99.90;;;;;;5053687;28;20635;-75
2021/09/16 14:30:15;;;;;;;2.83;2.20;;;23.40;99.90;;;;;;5053665;28;20249;-75
2021/09/16 14:32:41;;;;;;;2.95;1.90;;;23.60;99.90;;;;;;5053490;28;20207;-75
2021/09/16 14:35:10;;;;;;;2.45;1.67;;;23.60;99.90;;;;;;5053695;28;20214;-72
2021/09/16 14:37:37;;;;;;;2.85;2.00;;;23.70;99.90;;;;;;5053627;28;20208;-75
2021/09/16 14:40:06;;;;;;;4.80;2.33;;;23.80;99.90;;;;;;5053597;28;20590;-74
2021/09/16 14:42:33;;;;;;;2.47;1.60;;;23.80;99.90;;;;;;5053259;28;20227;-73
2021/09/16 14:45:00;;;;;;;4.78;2.08;;;23.90;99.90;;;;;;5053328;28;20204;-73
2021/09/16 14:47:27;;;;;;;3.55;1.77;;;23.80;99.90;;;;;;5053199;28;20234;-73
2021/09/16 14:49:54;;;;;;;3.10;2.05;;;23.70;99.90;;;;;;5053209;28;20224;-74
2021/09/16 14:52:22;;;;;;;3.47;2.10;;;23.50;99.90;;;;;;5053335;28;20663;-73
2021/09/16 14:54:49;;;;;;;2.72;1.80;;;23.40;99.90;;;;;;5053360;28;20214;-74
2021/09/16 14:57:16;;;;;;;2.58;1.77;;;23.40;99.90;;;;;;5053211;28;20208;-75
2021/09/16 14:59:42;;;;;;;3.13;1.80;;;23.20;99.90;;;;;;5052826;28;20239;-74
2021/09/16 15:02:09;;;;;;;2.83;1.70;;;23.00;99.90;;;;;;5053316;28;20206;-73
2021/09/16 15:04:36;;;;;;;2.40;1.55;;;22.90;99.90;;;;;;5053114;28;20204;-73
2021/09/16 15:07:03;;;;;;;2.72;1.77;;;22.90;99.90;;;;;;5053642;28;20261;-74
2021/09/16 15:09:31;;;;;;;2.45;1.83;;;22.70;99.90;;;;;;5052960;28;20718;-74
2021/09/16 15:11:57;;;;;;;3.10;2.10;;;22.50;99.90;;;;;;5053113;28;20200;-73
2021/09/16 15:14:24;;;;;;;4.32;2.10;;;22.50;99.90;;;;;;5053020;28;20207;-73
2021/09/16 15:16:52;;;;;;;1.92;1.40;;;22.40;99.90;;;;;;5049573;28;20200;-77
2021/09/16 15:19:18;;;;;;;3.25;1.98;;;22.40;99.90;;;;;;5051965;28;20254;-79
2021/09/16 15:21:45;;;;;;;3.40;1.55;;;22.40;99.90;;;;;;5052948;28;20286;-77
2021/09/16 15:24:12;;;;;;;4.38;1.92;;;22.40;99.90;;;;;;5053220;28;20562;-87
2021/09/16 15:26:40;;;;;;;5.93;2.63;;;22.40;99.90;;;;;;5053243;28;20224;-81
2021/09/16 15:29:07;;;;;;;3.00;2.00;;;22.40;99.90;;;;;;5052637;28;20230;-78
2021/09/16 15:31:34;;;;;;;3.63;2.33;;;22.50;99.90;;;;;;5052129;28;20243;-76
2021/09/16 15:34:01;;;;;;;3.08;2.10;;;22.40;99.90;;;;;;5052686;28;20207;-75
2021/09/16 15:36:28;;;;;;;4.13;2.38;;;22.20;99.90;;;;;;5052258;28;20535;-75
2021/09/16 15:38:55;;;;;;;4.85;3.08;;;22.20;99.90;;;;;;5051312;28;20314;-76
2021/09/16 15:41:22;;;;;;;3.90;2.45;;;22.20;99.90;;;;;;5052192;28;20210;-75
2021/09/16 15:43:50;;;;;;;3.17;2.00;;;22.20;99.90;;;;;;5052526;28;20556;-83
2021/09/16 15:46:17;;;;;;;2.88;1.95;;;22.20;99.90;;;;;;5052621;28;20228;-79
2021/09/16 15:48:44;;;;;;;4.70;2.15;;;22.30;99.90;;;;;;5052394;28;20227;-79
2021/09/16 15:51:11;;;;;;;3.90;2.10;;;22.40;99.90;;;;;;5052540;28;20200;-75
2021/09/16 15:53:39;;;;;;;2.13;1.67;;;22.50;99.90;;;;;;5052860;28;20199;-79
2021/09/16 15:56:07;;;;;;;3.03;1.77;;;22.60;99.90;;;;;;5054155;28;20295;-81
2021/09/16 15:58:34;;;;;;;3.50;2.20;;;22.80;99.90;;;;;;5053676;28;20224;-68
2021/09/16 16:01:02;;;;;;;3.42;1.80;;;22.90;99.90;;;;;;5047633;28;20207;-75
2021/09/16 16:03:29;;;;;;;2.75;1.83;;;22.90;99.90;;;;;;5051150;28;20209;-76
2021/09/16 16:05:57;;;;;;;2.38;1.90;;;22.70;99.90;;;;;;5052962;28;20200;-76
2021/09/16 16:08:24;;;;;;;2.88;1.85;;;22.70;99.90;;;;;;5052488;28;20246;-73
2021/09/16 16:10:51;;;;;;;2.05;1.65;;;22.70;99.90;;;;;;5035339;28;20208;-77
2021/09/16 16:13:18;;;;;;;2.20;1.50;;;22.70;99.90;;;;;;5045380;28;20208;-75
2021/09/16 16:15:47;;;;;;;3.25;1.90;;;22.60;99.90;;;;;;5059190;28;20235;-73
2021/09/16 16:18:17;;;;;;;3.00;1.75;;;22.70;99.90;;;;;;5071343;28;20223;-74
2021/09/16 16:20:50;;;;;;;1.73;1.33;;;22.70;99.90;;;;;;5055468;28;20214;-79
2021/09/16 16:23:17;;;;;;;4.00;1.70;;;22.70;99.90;;;;;;5062319;28;20265;-77
2021/09/16 16:25:44;;;;;;;2.63;1.60;;;22.70;99.90;;;;;;5068285;28;20208;-83
2021/09/16 16:28:11;;;;;;;2.05;1.60;;;22.70;99.90;;;;;;5062789;28;20232;-76
2021/09/16 16:30:38;;;;;;;2.40;1.45;;;22.70;99.90;;;;;;5048458;28;20232;-75
2021/09/16 16:33:05;;;;;;;2.00;1.38;;;22.80;99.90;;;;;;5047164;28;20740;-78
2021/09/16 16:35:33;;;;;;;2.80;1.58;;;22.70;99.90;;;;;;5053363;28;20222;-75
2021/09/16 16:38:00;;;;;;;1.50;1.40;;;22.70;99.90;;;;;;5053986;28;20228;-74
2021/09/16 16:40:27;;;;;;;1.80;1.20;;;22.80;99.90;;;;;;5040322;28;20671;-76
2021/09/16 16:42:54;;;;;;;2.22;1.48;;;22.70;99.90;;;;;;5044017;28;20200;-76
2021/09/16 16:45:21;;;;;;;2.83;1.50;;;22.60;99.90;;;;;;5053293;28;20210;-73
2021/09/16 16:47:48;;;;;;;1.55;0.98;;;22.60;99.90;;;;;;5054210;28;20595;-74
2021/09/16 16:50:18;;;;;;;1.40;1.10;;;22.60;99.90;;;;;;5041354;28;20208;-76
2021/09/16 16:52:47;;;;;;;1.33;1.02;;;22.50;99.90;;;;;;5042054;28;20211;-75
2021/09/16 16:55:15;;;;;;;2.50;1.45;;;22.40;99.90;;;;;;5054725;28;20271;-74
2021/09/16 16:57:42;;;;;;;1.63;1.20;;;22.40;99.90;;;;;;5040696;28;20292;-78
2021/09/16 17:00:12;;;;;;;2.95;1.63;;;22.30;99.90;;;;;;5035307;28;20558;-74
2021/09/16 17:02:39;;;;;;;2.58;1.30;;;22.10;99.90;;;;;;5034129;28;20200;-76
2021/09/16 17:05:07;;;;;;;1.95;1.33;;;22.00;99.90;;;;;;5035707;28;20571;-76
2021/09/16 17:07:34;;;;;;;2.22;1.25;;;21.90;99.90;;;;;;5035063;28;20235;-76
2021/09/16 17:10:02;;;;;;;3.58;1.60;;;21.80;99.90;;;;;;5034409;28;20225;-75
2021/09/16 17:12:29;;;;;;;2.47;1.45;;;21.60;99.90;;;;;;5034786;28;20201;-76
2021/09/16 17:14:56;;;;;;;3.40;1.42;;;21.60;99.90;;;;;;5036510;28;20216;-75
2021/09/16 17:17:24;;;;;;;1.75;1.20;;;21.50;99.90;;;;;;5035950;28;20219;-75
2021/09/16 17:19:51;;;;;;;3.53;1.60;;;21.30;99.90;;;;;;5040006;28;20217;-74
2021/09/16 17:22:18;;;;;;;2.28;1.55;;;21.20;99.90;;;;;;5035434;28;20208;-73
2021/09/16 17:24:46;;;;;;;1.88;1.33;;;21.10;99.90;;;;;;5035770;28;20266;-76
2021/09/16 17:27:14;;;;;;;2.85;1.35;;;21.00;99.90;;;;;;5035170;28;20228;-75
2021/09/16 17:29:41;;;;;;;3.65;1.42;;;20.80;99.90;;;;;;5035323;28;20241;-76
2021/09/16 17:32:08;;;;;;;3.75;1.27;;;20.70;99.90;;;;;;5036500;28;20540;-76
2021/09/16 17:34:35;;;;;;;1.60;1.20;;;20.70;99.90;;;;;;5034772;28;20209;-75
2021/09/16 17:37:03;;;;;;;1.60;1.05;;;20.40;99.90;;;;;;5035454;28;20212;-76
2021/09/16 17:39:30;;;;;;;1.65;1.23;;;20.30;99.90;;;;;;5035817;28;20711;-75
2021/09/16 17:41:57;;;;;;;1.67;1.20;;;20.20;99.90;;;;;;5036433;28;20239;-76
2021/09/16 17:44:25;;;;;;;1.58;1.33;;;20.10;99.90;;;;;;5034865;28;20212;-76
2021/09/16 17:46:52;;;;;;;1.27;1.17;;;20.10;99.90;;;;;;5034617;28;20205;-76
2021/09/16 17:49:19;;;;;;;2.63;1.00;;;20.00;99.90;;;;;;5034402;28;20299;-75
2021/09/16 17:51:46;;;;;;;3.95;1.52;;;19.90;99.90;;;;;;5034207;28;20690;-76
2021/09/16 17:54:14;;;;;;;1.95;1.40;;;19.90;99.90;;;;;;5034212;28;20216;-76
2021/09/16 17:56:41;;;;;;;1.98;1.55;;;19.70;99.90;;;;;;5034480;28;20718;-75
2021/09/16 17:59:09;;;;;;;2.25;1.50;;;19.60;99.90;;;;;;5034291;28;20601;-71
2021/09/16 18:01:39;;;;;;;1.58;1.25;;;19.50;99.90;;;;;;5034628;28;20208;-76
2021/09/16 18:04:09;;;;;;;2.25;1.48;;;19.30;99.90;;;;;;5034386;28;20300;-69
2021/09/16 18:06:36;;;;;;;2.67;1.70;;;19.20;99.90;;;;;;5034172;28;20566;-74
2021/09/16 18:09:03;;;;;;;2.45;1.40;;;19.20;99.90;;;;;;5034310;28;20236;-68
2021/09/16 18:11:31;;;;;;;1.90;1.40;;;19.10;99.90;;;;;;5034315;28;20642;-68
2021/09/16 18:13:57;;;;;;;3.30;1.70;;;19.00;99.90;;;;;;5034376;28;20755;-75
2021/09/16 18:16:24;;;;;;;2.17;1.53;;;19.00;99.90;;;;;;5034482;28;20204;-75
2021/09/16 18:18:52;;;;;;;4.20;1.70;;;18.90;99.90;;;;;;5033910;28;20228;-78
2021/09/16 18:21:19;;;;;;;2.83;1.67;;;18.70;99.90;;;;;;5033831;28;20205;-74
2021/09/16 18:23:46;;;;;;;2.03;1.30;;;18.70;99.90;;;;;;5033783;28;20659;-74
2021/09/16 18:26:13;;;;;;;3.60;1.50;;;18.70;99.90;;;;;;5033861;28;20209;-72
2021/09/16 18:28:40;;;;;;;2.60;1.53;;;18.60;99.90;;;;;;5033438;28;20576;-76
2021/09/16 18:31:07;;;;;;;3.57;1.77;;;18.50;99.90;;;;;;5034220;28;20208;-76
2021/09/16 18:33:34;;;;;;;2.10;1.40;;;18.40;99.90;;;;;;5033727;28;20209;-76
2021/09/16 18:36:02;;;;;;;2.83;1.60;;;18.30;99.90;;;;;;5033802;28;20689;-75
2021/09/16 18:38:29;;;;;;;3.07;1.40;;;18.20;99.90;;;;;;5053030;28;20224;-75
2021/09/16 18:40:56;;;;;;;2.50;1.47;;;18.20;99.90;;;;;;5053196;28;20208;-75
2021/09/16 18:43:23;;;;;;;4.20;1.80;;;18.20;99.90;;;;;;5053246;28;20200;-75
2021/09/16 18:45:49;;;;;;;3.83;1.90;;;18.10;99.90;;;;;;5046110;28;20212;-73
2021/09/16 18:48:18;;;;;;;4.13;1.80;;;18.10;99.90;;;;;;5032662;28;20246;-74
2021/09/16 18:50:45;;;;;;;3.50;1.63;;;18.00;99.90;;;;;;5032970;28;20295;-76
2021/09/16 18:53:13;;;;;;;3.53;1.83;;;18.00;99.90;;;;;;5032507;28;20212;-75
2021/09/16 18:55:40;;;;;;;4.10;1.80;;;17.80;99.90;;;;;;5044858;28;20686;-76
2021/09/16 18:58:06;;;;;;;4.23;1.93;;;17.70;99.90;;;;;;5032621;28;20225;-74
2021/09/16 19:00:33;;;;;;;3.60;1.90;;;17.70;99.90;;;;;;5032829;28;20212;-75
2021/09/16 19:03:00;;;;;;;2.83;2.13;;;17.60;99.90;;;;;;5032268;28;20201;-76
2021/09/16 19:05:27;;;;;;;2.27;1.73;;;17.70;99.90;;;;;;5031792;28;20212;-74
2021/09/16 19:07:54;;;;;;;4.03;2.20;;;17.60;99.90;;;;;;5032432;28;20241;-75
2021/09/16 19:10:22;;;;;;;2.53;2.00;;;17.50;99.90;;;;;;5032468;28;20200;-72
2021/09/16 19:12:49;;;;;;;3.10;2.00;;;17.50;99.90;;;;;;5032178;28;20655;-73
2021/09/16 19:15:17;;;;;;;3.17;2.00;;;17.40;99.90;;;;;;5032462;28;20197;-73
2021/09/16 19:17:44;;;;;;;4.00;2.20;;;17.30;99.90;;;;;;5032300;28;20295;-74
2021/09/16 19:20:12;;;;;;;4.83;2.10;;;17.30;99.90;;;;;;5032549;28;20209;-76
2021/09/16 19:22:39;;;;;;;3.30;2.23;;;17.20;99.90;;;;;;5033237;28;20205;-74
2021/09/16 19:25:07;;;;;;;4.20;2.67;;;17.20;99.90;;;;;;5032682;28;20219;-75
2021/09/16 19:27:37;;;;;;;3.03;1.80;;;17.10;99.90;;;;;;5032257;28;20240;-75
2021/09/16 19:30:05;;;;;;;4.13;2.23;;;16.90;99.90;;;;;;5033685;28;20320;-74
